Time;durP1;ratioP1;P1;durP2;ratioP2;P2;SDS_P1;SDS_P2;PMS_P1;PMS_P2;Temp;Humidity;BMP_temperature;BMP_pressure;BME280_temperature;BME280_humidity;BME280_pressure;Samples;Min_cycle;Max_cycle;Signal;HPM_P1;HPM_P2
2022/08/12 00:44:09;;;;;;;4.78;3.90;;;;;;;19.95;78.67;101548.31;5088117;28;20166;-79
2022/08/12 00:46:44;;;;;;;12.82;3.75;;;;;;;20.07;75.81;101545.25;5079524;28;20039;-79
2022/08/12 00:49:10;;;;;;;9.23;3.85;;;;;;;19.91;78.79;101535.81;5095257;28;20039;-77
2022/08/12 00:54:23;;;;;;;11.27;3.30;;;;;;;19.89;79.64;101537.88;5080224;28;20040;-79
2022/08/12 00:56:52;;;;;;;5.82;3.30;;;;;;;19.80;79.55;101541.66;5081339;28;20043;-78
2022/08/12 00:59:18;;;;;;;7.43;4.00;;;;;;;19.78;80.10;101546.50;5079266;28;20467;-79
2022/08/12 01:01:46;;;;;;;11.55;4.28;;;;;;;19.67;80.27;101536.50;5081390;28;20146;-79
2022/08/12 01:12:37;;;;;;;5.00;3.50;;;;;;;19.59;79.91;101536.47;5097644;28;20028;-78
2022/08/12 01:15:03;;;;;;;9.05;3.40;;;;;;;19.57;80.24;101539.41;5093993;28;20401;-79
2022/08/12 01:17:29;;;;;;;6.72;3.60;;;;;;;19.56;80.32;101542.34;5059725;28;20040;-79
2022/08/12 01:19:59;;;;;;;4.15;3.72;;;;;;;19.50;80.36;101540.25;5092680;28;20032;-78
2022/08/12 01:22:44;;;;;;;4.60;3.45;;;;;;;19.56;80.75;101536.78;5075794;28;20033;-79
2022/08/12 01:25:16;;;;;;;9.98;4.05;;;;;;;19.59;79.79;101542.00;5070484;28;20399;-79
2022/08/12 01:27:42;;;;;;;5.97;3.33;;;;;;;19.50;81.01;101541.09;5079212;28;20051;-79
2022/08/12 01:30:12;;;;;;;8.20;3.80;;;;;;;19.41;81.70;101542.97;5078758;28;20413;-78
2022/08/12 01:32:40;;;;;;;9.00;3.90;;;;;;;19.41;81.91;101542.06;5099497;28;20032;-79
2022/08/12 01:35:07;;;;;;;8.90;3.75;;;;;;;19.36;82.20;101545.31;5080154;28;20123;-79
2022/08/12 01:37:44;;;;;;;7.05;3.50;;;;;;;19.29;82.40;101547.03;5062087;28;20082;-78
2022/08/12 01:40:10;;;;;;;3.80;3.28;;;;;;;19.24;82.49;101550.28;5093057;28;20043;-78
2022/08/12 01:42:46;;;;;;;8.50;3.55;;;;;;;19.31;82.61;101552.41;5086261;28;20048;-79
2022/08/12 01:45:12;;;;;;;7.05;3.30;;;;;;;19.26;83.02;101550.13;5079699;28;20039;-78
2022/08/12 01:48:06;;;;;;;5.10;3.47;;;;;;;19.19;83.10;101557.34;5063913;28;20035;-78
2022/08/12 01:50:55;;;;;;;7.25;3.00;;;;;;;19.25;83.24;101552.03;5060324;28;20067;-79
2022/08/12 01:53:24;;;;;;;5.32;3.80;;;;;;;19.19;83.18;101543.47;5061675;28;20387;-78
2022/08/12 01:55:51;;;;;;;7.65;4.13;;;;;;;19.17;82.66;101543.63;5055682;28;20032;-79
2022/08/12 01:59:45;;;;;;;5.85;4.47;;;;;;;19.14;83.94;101546.72;5055140;28;20024;-80
2022/08/12 02:01:29;;;;;;;6.13;4.20;;;;;;;19.01;83.78;101538.81;5098954;28;20027;-78
2022/08/12 02:13:47;;;;;;;7.85;4.57;;;;;;;18.86;86.79;101543.19;5095924;28;20043;-79
2022/08/12 02:16:41;;;;;;;7.95;4.70;;;;;;;18.80;86.73;101541.88;5074101;28;20488;-79
2022/08/12 02:19:15;;;;;;;6.97;4.57;;;;;;;18.79;87.67;101539.25;5077139;28;20039;-77
2022/08/12 02:21:47;;;;;;;7.28;4.72;;;;;;;18.76;87.25;101540.47;5079751;28;20032;-79
2022/08/12 02:24:18;;;;;;;9.77;5.68;;;;;;;18.72;87.06;101530.69;5078753;28;20437;-79
2022/08/12 02:26:46;;;;;;;5.90;4.63;;;;;;;18.74;87.74;101539.72;5078141;28;20063;-79
2022/08/12 02:29:12;;;;;;;7.20;4.63;;;;;;;18.71;88.53;101534.53;5061370;28;20028;-79
2022/08/12 02:31:41;;;;;;;11.88;5.03;;;;;;;18.67;88.07;101542.25;5030494;28;20032;-78
2022/08/12 02:34:08;;;;;;;10.52;4.80;;;;;;;18.63;89.36;101545.53;5078212;28;20073;-78
2022/08/12 02:36:38;;;;;;;12.95;4.78;;;;;;;18.57;89.41;101537.84;5075881;28;20039;-79
2022/08/12 02:39:05;;;;;;;11.85;5.07;;;;;;;18.60;88.58;101541.16;5094608;28;20028;-80
2022/08/12 02:41:31;;;;;;;14.63;5.50;;;;;;;18.57;88.78;101533.16;5061634;28;20056;-79
2022/08/12 02:44:06;;;;;;;13.23;4.68;;;;;;;18.53;89.70;101529.81;5096698;28;20460;-78
2022/08/12 02:46:34;;;;;;;8.50;4.82;;;;;;;18.54;89.17;101542.69;5075978;28;20024;-79
2022/08/12 02:49:11;;;;;;;9.23;4.65;;;;;;;18.44;90.41;101536.31;5076476;28;20038;-79
2022/08/12 02:51:45;;;;;;;13.77;5.20;;;;;;;18.39;91.41;101533.13;5096815;28;20089;-79
2022/08/12 02:54:11;;;;;;;8.70;5.00;;;;;;;18.42;91.27;101529.19;5079420;28;20032;-79
2022/08/12 02:56:40;;;;;;;16.63;4.90;;;;;;;18.47;89.95;101530.44;5059357;28;20038;-79
2022/08/12 02:59:13;;;;;;;15.38;5.03;;;;;;;18.48;89.82;101526.66;5095279;28;20032;-79
2022/08/12 03:01:42;;;;;;;;;;;;;;;18.43;90.57;101529.03;5095628;28;20074;-79
2022/08/12 03:04:16;;;;;;;14.70;5.20;;;;;;;18.35;91.65;101532.56;5095028;28;19957;-79
2022/08/12 03:06:56;;;;;;;9.52;5.53;;;;;;;18.24;92.64;101526.38;5094085;28;20032;-79
2022/08/12 03:09:24;;;;;;;12.63;5.68;;;;;;;18.19;93.91;101522.16;5078423;28;20119;-79
2022/08/12 03:12:08;;;;;;;16.08;5.38;;;;;;;18.23;94.18;101536.56;5074932;28;20078;-79
2022/08/12 03:14:35;;;;;;;12.80;5.25;;;;;;;18.12;94.91;101534.03;5071561;28;20035;-77
2022/08/12 03:17:21;;;;;;;7.85;5.22;;;;;;;18.08;95.33;101529.81;5091455;28;20036;-78
2022/08/12 03:19:49;;;;;;;11.10;5.63;;;;;;;18.10;96.21;101522.22;5091770;28;20035;-79
2022/08/12 03:22:17;;;;;;;6.00;5.38;;;;;;;18.14;95.95;101523.66;5096458;28;20038;-79
2022/08/12 03:24:44;;;;;;;13.63;5.97;;;;;;;18.11;95.41;101513.75;5094429;28;20054;-79
2022/08/12 03:27:12;;;;;;;17.67;6.28;;;;;;;18.10;95.56;101523.09;5094139;28;20116;-77
2022/08/12 03:29:41;;;;;;;13.25;6.85;;;;;;;18.00;96.88;101522.28;5094553;28;20078;-78
2022/08/12 03:32:07;;;;;;;9.65;6.15;;;;;;;17.98;96.85;101519.66;5077853;28;20028;-77
2022/08/12 03:34:34;;;;;;;12.52;6.40;;;;;;;17.94;97.16;101512.69;5096751;28;20042;-79
2022/08/12 03:37:02;;;;;;;9.18;6.07;;;;;;;17.98;96.98;101514.09;5094639;28;20043;-78
2022/08/12 03:42:17;;;;;;;14.30;6.72;;;;;;;17.90;98.94;101516.78;5095125;28;20048;-79
2022/08/12 04:01:51;;;;;;;8.68;6.53;;;;;;;17.70;100.00;101526.19;5083369;28;20031;-79
2022/08/12 04:04:17;;;;;;;15.30;6.40;;;;;;;17.61;100.00;101527.94;5059390;28;20096;-79
2022/08/12 04:06:44;;;;;;;11.00;6.43;;;;;;;17.60;100.00;101535.38;5059136;28;20035;-78
2022/08/12 04:09:11;;;;;;;10.70;5.97;;;;;;;17.67;100.00;101530.09;5066223;28;20032;-77
2022/08/12 04:14:26;;;;;;;13.38;6.03;;;;;;;17.63;100.00;101537.00;5076547;28;20430;-80
2022/08/12 04:16:51;;;;;;;12.18;6.05;;;;;;;17.60;100.00;101532.63;5065729;28;20028;-80
2022/08/12 04:19:18;;;;;;;7.72;5.93;;;;;;;17.60;100.00;101531.75;5064694;28;20043;-79
2022/08/12 04:21:45;;;;;;;14.55;6.50;;;;;;;17.54;100.00;101526.81;5085483;28;20032;-78
2022/08/12 04:24:11;;;;;;;13.15;6.57;;;;;;;17.52;100.00;101524.19;5094548;28;20105;-80
2022/08/12 04:26:39;;;;;;;15.45;6.05;;;;;;;17.47;100.00;101525.69;5083661;28;20039;-79
2022/08/12 04:29:05;;;;;;;9.63;6.93;;;;;;;17.55;100.00;101526.66;5102228;28;20479;-78
2022/08/12 04:31:39;;;;;;;12.07;5.95;;;;;;;17.52;100.00;101528.88;5103690;28;20098;-78
2022/08/12 04:34:06;;;;;;;9.18;6.45;;;;;;;17.48;100.00;101528.28;5104623;28;20039;-77
2022/08/12 04:36:33;;;;;;;9.60;6.20;;;;;;;17.52;100.00;101528.88;5104889;28;20081;-79
2022/08/12 04:39:01;;;;;;;10.50;6.10;;;;;;;17.43;100.00;101514.91;5087509;28;20507;-79
2022/08/12 04:41:28;;;;;;;13.43;6.78;;;;;;;17.42;100.00;101523.34;5077276;28;20048;-79
2022/08/12 04:43:54;;;;;;;13.63;6.25;;;;;;;17.44;100.00;101529.59;5066617;28;20040;-78
2022/08/12 04:46:21;;;;;;;11.27;6.28;;;;;;;17.45;100.00;101528.59;5078416;28;20544;-78
2022/08/12 04:48:46;;;;;;;10.07;6.20;;;;;;;17.43;100.00;101531.50;5079767;28;20068;-79
2022/08/12 04:51:13;;;;;;;8.38;6.50;;;;;;;17.40;100.00;101526.28;5078686;28;20381;-79
2022/08/12 04:53:42;;;;;;;9.38;6.20;;;;;;;17.49;100.00;101531.94;5075680;28;20028;-79
2022/08/12 04:56:09;;;;;;;12.43;6.90;;;;;;;17.43;100.00;101525.06;5077064;28;20037;-78
2022/08/12 04:58:35;;;;;;;14.65;6.55;;;;;;;17.43;100.00;101530.63;5064398;28;20052;-78
2022/08/12 05:01:02;;;;;;;9.95;6.63;;;;;;;17.44;100.00;101533.22;5040897;28;20040;-78
2022/08/12 05:06:50;;;;;;;10.63;6.97;;;;;;;17.43;100.00;101542.59;5075668;28;20035;-79
2022/08/12 05:09:15;;;;;;;14.43;7.15;;;;;;;17.52;100.00;101540.81;5078050;28;20041;-80
2022/08/12 05:11:41;;;;;;;13.02;6.78;;;;;;;17.42;100.00;101539.97;5076338;28;20043;-78
2022/08/12 05:14:10;;;;;;;10.68;6.53;;;;;;;17.51;100.00;101532.63;5056248;28;20033;-80
2022/08/12 05:16:36;;;;;;;10.68;6.95;;;;;;;17.53;100.00;101536.13;5067591;28;20032;-79
2022/08/12 05:19:02;;;;;;;11.95;6.57;;;;;;;17.65;100.00;101546.00;5070661;28;20028;-80
2022/08/12 05:21:28;;;;;;;11.80;7.25;;;;;;;17.71;100.00;101541.75;5060585;28;20074;-80
2022/08/12 05:23:53;;;;;;;10.15;6.95;;;;;;;17.73;100.00;101534.19;5073909;28;20064;-80
2022/08/12 05:26:19;;;;;;;10.20;6.75;;;;;;;17.82;100.00;101533.25;5060580;28;20495;-80
2022/08/12 05:28:45;;;;;;;10.90;6.88;;;;;;;17.85;100.00;101548.72;5077051;28;20052;-80
2022/08/12 05:31:11;;;;;;;11.55;6.30;;;;;;;18.02;100.00;101542.41;5075455;28;20037;-78
2022/08/12 05:33:38;;;;;;;13.43;6.88;;;;;;;18.16;100.00;101544.63;5077859;28;20032;-78
2022/08/12 05:36:11;;;;;;;9.48;6.90;;;;;;;18.13;100.00;101538.53;5044793;28;20040;-78
2022/08/12 05:38:55;;;;;;;15.52;7.63;;;;;;;18.19;100.00;101536.03;5077990;28;20078;-79
2022/08/12 05:41:25;;;;;;;11.65;6.50;;;;;;;18.50;100.00;101544.00;5077015;28;20040;-79
2022/08/12 05:44:03;;;;;;;10.50;6.88;;;;;;;18.66;100.00;101531.31;5080182;28;20394;-79
2022/08/12 05:46:30;;;;;;;15.07;7.78;;;;;;;18.73;100.00;101549.97;5096890;28;20089;-80
2022/08/12 05:48:57;;;;;;;12.32;7.40;;;;;;;19.31;100.00;101549.63;5080221;28;20028;-80
2022/08/12 05:51:24;;;;;;;11.18;7.90;;;;;;;19.75;98.93;101552.38;5079314;28;20033;-80
2022/08/12 05:53:52;;;;;;;14.00;7.95;;;;;;;19.72;100.00;101563.81;5081114;28;20040;-80
2022/08/12 05:56:20;;;;;;;15.25;7.82;;;;;;;19.80;100.00;101561.09;5074947;28;20438;-80
2022/08/12 05:58:47;;;;;;;11.23;8.70;;;;;;;19.56;100.00;101556.22;5098599;28;20438;-78
2022/08/12 06:01:13;;;;;;;19.67;9.05;;;;;;;19.77;100.00;101553.09;5077536;28;20426;-78
2022/08/12 06:03:39;;;;;;;16.83;8.30;;;;;;;20.33;97.04;101550.72;5076074;28;20047;-81
2022/08/12 06:06:05;;;;;;;15.80;8.38;;;;;;;20.67;95.51;101561.81;5072962;28;20040;-79
2022/08/12 06:08:34;;;;;;;11.57;7.57;;;;;;;20.64;95.45;101564.94;5057993;28;20067;-78
2022/08/12 06:11:04;;;;;;;11.40;8.75;;;;;;;21.08;91.62;101570.22;5058209;28;20036;-79
2022/08/12 06:13:33;;;;;;;20.52;8.18;;;;;;;21.23;88.76;101561.19;5095368;28;20040;-78
2022/08/12 06:16:00;;;;;;;20.15;8.93;;;;;;;21.02;90.68;101568.16;5046831;28;20035;-79
2022/08/12 06:18:25;;;;;;;10.95;8.05;;;;;;;21.74;87.31;101556.28;5076193;28;20036;-78
2022/08/12 06:20:57;;;;;;;17.55;8.45;;;;;;;21.84;86.49;101558.84;5093422;28;20047;-78
2022/08/12 06:23:27;;;;;;;13.93;8.35;;;;;;;21.90;87.23;101558.13;5095199;28;20109;-79
2022/08/12 06:25:57;;;;;;;13.95;8.27;;;;;;;22.28;85.04;101551.88;5077504;28;20074;-77
2022/08/12 06:28:23;;;;;;;17.70;7.70;;;;;;;22.33;84.45;101555.03;5087594;28;20040;-77
2022/08/12 06:30:50;;;;;;;18.10;8.13;;;;;;;22.44;81.92;101549.06;5092879;28;20111;-77
2022/08/12 06:33:17;;;;;;;18.55;8.05;;;;;;;22.37;81.87;101550.84;5055470;28;20039;-78
2022/08/12 06:35:43;;;;;;;15.65;7.70;;;;;;;22.77;79.15;101548.84;5073644;28;20031;-76
2022/08/12 06:38:18;;;;;;;15.00;8.20;;;;;;;22.87;78.29;101545.81;5042093;28;20062;-76
2022/08/12 06:43:29;;;;;;;17.52;8.32;;;;;;;23.48;75.90;101549.50;5057326;28;20048;-76
2022/08/12 06:45:56;;;;;;;24.27;9.15;;;;;;;23.39;77.28;101549.78;5038895;28;20044;-76
2022/08/12 06:48:24;;;;;;;31.08;8.60;;;;;;;24.31;73.19;101549.44;5053310;28;20037;-79
2022/08/12 06:50:50;;;;;;;24.35;9.50;;;;;;;24.16;72.89;101549.47;5069224;28;20040;-79
2022/08/12 06:53:16;;;;;;;26.50;9.60;;;;;;;24.24;72.46;101545.72;5058298;28;20036;-79
2022/08/12 06:55:41;;;;;;;24.70;9.30;;;;;;;24.14;73.29;101547.94;5040386;28;20045;-79
2022/08/12 06:58:07;;;;;;;26.60;9.80;;;;;;;23.81;76.20;101543.56;5051911;28;20029;-79
2022/08/12 07:00:33;;;;;;;17.83;9.50;;;;;;;24.86;71.44;101549.03;5056411;28;20035;-79
2022/08/12 07:03:01;;;;;;;26.35;9.55;;;;;;;25.24;68.61;101549.63;5041401;28;20036;-78
2022/08/12 07:05:27;;;;;;;31.23;10.95;;;;;;;25.52;65.93;101548.84;5058046;28;20052;-78
2022/08/12 07:08:00;;;;;;;23.45;10.60;;;;;;;25.12;67.77;101548.44;5072788;28;20047;-81
2022/08/12 07:10:27;;;;;;;22.67;10.75;;;;;;;25.35;67.99;101556.69;5074370;28;20048;-81
2022/08/12 07:12:53;;;;;;;27.05;10.18;;;;;;;26.16;64.84;101553.38;5074732;28;20479;-80
2022/08/12 07:15:24;;;;;;;28.08;10.57;;;;;;;26.43;64.27;101545.06;5041590;28;20059;-80
2022/08/12 07:18:36;;;;;;;21.65;10.77;;;;;;;26.46;63.77;101558.69;5041239;28;20450;-80
2022/08/12 07:20:46;;;;;;;46.60;10.82;;;;;;;26.07;65.12;101563.03;5056866;28;20051;-79
2022/08/12 07:23:13;;;;;;;29.80;10.30;;;;;;;26.01;63.36;101558.25;5054292;28;20076;-80
2022/08/12 07:25:39;;;;;;;22.45;10.82;;;;;;;26.35;60.60;101557.38;5054334;28;20056;-79
2022/08/12 07:28:28;;;;;;;24.83;9.63;;;;;;;26.87;58.19;101552.16;5056123;28;20040;-79
2022/08/12 07:30:56;;;;;;;36.28;10.77;;;;;;;27.04;58.25;101566.69;5073628;28;20096;-79
2022/08/12 07:33:24;;;;;;;30.02;11.30;;;;;;;27.11;57.94;101564.72;5074246;28;20037;-79
2022/08/12 07:35:52;;;;;;;29.95;10.48;;;;;;;28.04;56.84;101561.06;5041036;28;20102;-79
2022/08/12 07:38:32;;;;;;;31.60;9.00;;;;;;;28.23;56.75;101564.03;5037795;28;20036;-79
2022/08/12 07:41:09;;;;;;;26.88;11.30;;;;;;;27.99;56.03;101560.88;5065379;28;20068;-80
2022/08/12 07:43:38;;;;;;;23.85;9.52;;;;;;;27.97;55.93;101564.97;5080791;28;20059;-79
2022/08/12 07:46:06;;;;;;;23.25;9.93;;;;;;;28.26;53.90;101569.22;5058428;28;20043;-80
2022/08/12 07:48:36;;;;;;;30.98;9.38;;;;;;;28.11;55.56;101566.69;5062919;28;20044;-79
2022/08/12 07:51:01;;;;;;;16.63;7.57;;;;;;;28.85;52.09;101564.44;5080452;28;20036;-80
2022/08/12 07:53:27;;;;;;;24.35;8.38;;;;;;;28.53;51.75;101577.56;5047861;28;20032;-78
2022/08/12 07:55:53;;;;;;;22.02;6.95;;;;;;;27.88;51.06;101578.41;5047961;28;20055;-80
2022/08/12 07:58:18;;;;;;;16.10;5.55;;;;;;;28.63;49.55;101572.38;5047506;28;20040;-80
2022/08/12 08:00:44;;;;;;;18.90;6.75;;;;;;;28.55;48.09;101572.59;5064280;28;20036;-79
2022/08/12 08:03:12;;;;;;;18.02;6.85;;;;;;;28.48;49.43;101572.59;5064095;28;20031;-79
2022/08/12 08:05:48;;;;;;;18.67;6.53;;;;;;;28.76;49.04;101577.03;5098002;28;20036;-80
2022/08/12 08:08:13;;;;;;;18.25;5.50;;;;;;;29.74;45.61;101572.88;5063049;28;20522;-80
2022/08/12 08:10:40;;;;;;;19.73;5.82;;;;;;;29.38;47.18;101571.69;5080601;28;20052;-79
2022/08/12 08:13:07;;;;;;;15.10;5.22;;;;;;;29.98;44.67;101578.78;5046923;28;20115;-80
2022/08/12 08:15:33;;;;;;;17.10;5.88;;;;;;;29.98;43.60;101571.16;5047435;28;20032;-79
2022/08/12 08:18:05;;;;;;;20.02;5.40;;;;;;;29.19;47.57;101572.69;5046237;28;20479;-80
2022/08/12 08:20:34;;;;;;;15.40;4.53;;;;;;;29.28;46.20;101577.81;5096412;28;20036;-79
2022/08/12 08:23:09;;;;;;;27.65;4.70;;;;;;;30.60;43.01;101576.75;5078646;28;20042;-80
2022/08/12 08:25:37;;;;;;;30.38;5.28;;;;;;;29.55;46.99;101576.75;5081280;28;20032;-80
2022/08/12 08:28:11;;;;;;;17.15;4.88;;;;;;;30.30;43.63;101572.97;5098041;28;20060;-79
2022/08/12 08:30:41;;;;;;;18.80;5.45;;;;;;;30.15;44.61;101573.34;5095143;28;20068;-80
2022/08/12 08:33:10;;;;;;;13.77;4.85;;;;;;;30.56;44.16;101569.81;5077149;28;20028;-79
2022/08/12 08:35:40;;;;;;;11.70;4.50;;;;;;;30.64;42.99;101579.94;5045439;28;20047;-79
2022/08/12 08:38:16;;;;;;;17.80;3.88;;;;;;;30.44;42.50;101568.91;5063502;28;20028;-79
2022/08/12 08:43:31;;;;;;;17.85;3.60;;;;;;;31.21;42.35;101573.09;5075283;28;20135;-79
2022/08/12 08:45:59;;;;;;;15.32;4.63;;;;;;;31.13;39.71;101577.09;5057911;28;20043;-80
2022/08/12 08:48:25;;;;;;;7.85;3.78;;;;;;;31.29;40.37;101572.72;5074639;28;20420;-79
2022/08/12 08:50:51;;;;;;;13.27;4.00;;;;;;;31.44;40.95;101575.09;5075589;28;20036;-78
2022/08/12 08:53:17;;;;;;;11.07;3.40;;;;;;;30.94;40.98;101579.97;5055120;28;20429;-79
2022/08/12 08:55:43;;;;;;;11.60;3.90;;;;;;;31.79;38.53;101580.81;5056225;28;20028;-78
2022/08/12 08:58:08;;;;;;;12.25;3.60;;;;;;;31.51;38.53;101581.50;5056192;28;20029;-78
2022/08/12 09:00:39;;;;;;;17.88;3.90;;;;;;;31.84;37.91;101572.41;5054902;28;20049;-78
2022/08/12 09:03:06;;;;;;;14.10;3.95;;;;;;;30.88;39.98;101580.06;5060474;28;20472;-79
2022/08/12 09:05:32;;;;;;;17.88;3.72;;;;;;;31.02;40.24;101587.28;5056412;28;20519;-78
2022/08/12 09:08:00;;;;;;;14.95;4.07;;;;;;;31.36;41.20;101575.44;5056624;28;20524;-79
2022/08/12 09:10:26;;;;;;;15.63;3.58;;;;;;;31.02;40.75;101578.78;5057964;28;20025;-79
2022/08/12 09:15:37;;;;;;;9.90;3.63;;;;;;;31.29;40.02;101575.56;5066989;28;20115;-78
2022/08/12 09:18:05;;;;;;;11.90;3.10;;;;;;;31.74;35.91;101571.34;5056672;28;20088;-79
2022/08/12 09:20:32;;;;;;;11.90;2.97;;;;;;;31.39;36.72;101578.66;5056262;28;20086;-79
2022/08/12 09:23:00;;;;;;;18.27;2.97;;;;;;;31.49;37.00;101566.72;5042889;28;20553;-80
2022/08/12 09:25:27;;;;;;;10.02;2.97;;;;;;;31.65;35.98;101556.69;5076256;28;20032;-79
2022/08/12 09:27:53;;;;;;;11.82;2.97;;;;;;;31.86;34.95;101569.34;5075832;28;20040;-79
2022/08/12 09:30:20;;;;;;;10.30;3.15;;;;;;;32.38;34.97;101563.75;5058949;28;20128;-79
2022/08/12 09:32:49;;;;;;;13.73;3.55;;;;;;;32.34;35.19;101567.38;5057473;28;20091;-80
2022/08/12 09:35:19;;;;;;;21.98;4.15;;;;;;;32.39;35.08;101568.31;5076726;28;20415;-80
2022/08/12 09:37:47;;;;;;;19.25;3.22;;;;;;;31.76;35.42;101560.63;5076071;28;20415;-79
2022/08/12 09:40:15;;;;;;;12.60;3.45;;;;;;;32.45;34.95;101562.75;5076198;28;20020;-80
2022/08/12 09:45:30;;;;;;;10.45;2.67;;;;;;;32.01;34.74;101552.72;5070666;28;20032;-79
2022/08/12 09:47:57;;;;;;;9.88;3.10;;;;;;;32.18;32.79;101552.84;5059529;28;20029;-79
2022/08/12 09:50:23;;;;;;;11.25;2.63;;;;;;;31.87;34.68;101554.94;5077300;28;20048;-80
2022/08/12 09:53:13;;;;;;;7.97;2.50;;;;;;;32.19;32.70;101553.69;5056784;28;20059;-79
2022/08/12 09:55:47;;;;;;;14.05;2.60;;;;;;;32.83;32.55;101547.09;5053521;28;20055;-79
2022/08/12 09:58:17;;;;;;;5.50;2.30;;;;;;;33.51;29.96;101557.44;5067049;28;20028;-80
2022/08/12 10:00:44;;;;;;;7.45;2.63;;;;;;;33.73;28.53;101551.03;5074963;28;20048;-79
2022/08/12 10:03:11;;;;;;;8.43;2.50;;;;;;;32.79;31.03;101550.44;5075199;28;20452;-79
2022/08/12 10:05:44;;;;;;;5.72;2.40;;;;;;;33.02;30.77;101553.44;5042058;28;20518;-80
2022/08/12 10:08:12;;;;;;;11.05;2.28;;;;;;;33.19;29.90;101543.00;5059066;28;20422;-79
2022/08/12 10:13:40;;;;;;;5.30;2.05;;;;;;;32.43;31.88;101535.53;5076314;28;20365;-80
2022/08/12 10:16:18;;;;;;;3.65;2.25;;;;;;;32.48;29.14;101537.59;5076352;28;20047;-79
2022/08/12 10:18:50;;;;;;;6.00;2.47;;;;;;;32.50;30.63;101526.00;5075192;28;20094;-79
2022/08/12 10:21:23;;;;;;;4.78;2.70;;;;;;;32.34;30.26;101544.69;5057924;28;20028;-80
2022/08/12 10:23:50;;;;;;;7.30;2.28;;;;;;;32.54;30.17;101533.75;5076207;28;20494;-79
2022/08/12 10:31:50;;;;;;;4.30;2.45;;;;;;;32.73;30.29;101508.94;5065465;28;20040;-79
2022/08/12 10:34:16;;;;;;;12.52;2.33;;;;;;;33.32;29.32;101507.72;5054143;28;20037;-79
2022/08/12 10:36:43;;;;;;;8.35;2.20;;;;;;;32.91;30.47;101501.28;5054626;28;20040;-80
2022/08/12 10:39:13;;;;;;;8.45;2.05;;;;;;;33.55;29.18;101497.28;5038183;28;20039;-79
2022/08/12 10:44:23;;;;;;;12.02;2.53;;;;;;;32.93;29.76;101493.41;5076551;28;20166;-79
2022/08/12 10:46:54;;;;;;;5.93;2.38;;;;;;;33.06;28.60;101495.91;5096446;28;20444;-80
2022/08/12 10:49:20;;;;;;;6.10;2.28;;;;;;;32.67;28.33;101494.91;5078317;28;20032;-79
2022/08/12 10:51:48;;;;;;;2.83;1.98;;;;;;;33.04;28.01;101485.94;5061109;28;20032;-78
2022/08/12 10:54:14;;;;;;;8.70;2.03;;;;;;;33.50;28.72;101486.72;5055947;28;20033;-79
2022/08/12 10:56:44;;;;;;;10.10;2.30;;;;;;;33.10;28.54;101477.25;5058401;28;20143;-79
2022/08/12 10:59:10;;;;;;;11.98;2.47;;;;;;;33.24;29.34;101488.28;5042033;28;20029;-79
2022/08/12 11:01:35;;;;;;;9.32;2.20;;;;;;;33.01;28.11;101493.00;5077988;28;20120;-80
2022/08/12 11:04:03;;;;;;;9.10;2.10;;;;;;;32.84;28.71;101489.25;5043083;28;20046;-79
2022/08/12 11:06:28;;;;;;;5.90;1.98;;;;;;;32.65;28.85;101483.81;5063208;28;20054;-81
2022/08/12 11:08:55;;;;;;;3.88;2.00;;;;;;;32.83;27.54;101481.84;5067225;28;20044;-79
2022/08/12 11:11:21;;;;;;;8.90;2.38;;;;;;;32.77;28.32;101478.94;5059217;28;20082;-79
2022/08/12 11:13:47;;;;;;;9.20;2.55;;;;;;;32.55;28.20;101484.44;5026754;28;20136;-80
2022/08/12 11:16:15;;;;;;;13.70;2.08;;;;;;;32.48;28.56;101465.84;5072833;28;20158;-80
2022/08/12 11:18:40;;;;;;;6.47;2.30;;;;;;;32.43;28.38;101467.50;5078968;28;20028;-80
2022/08/12 11:21:06;;;;;;;7.75;2.40;;;;;;;32.30;29.26;101459.28;5061966;28;20157;-80
2022/08/12 11:23:32;;;;;;;6.70;2.80;;;;;;;32.21;28.66;101458.81;5047006;28;20032;-80
2022/08/12 11:25:57;;;;;;;12.63;2.47;;;;;;;32.21;29.47;101453.16;5100625;28;20040;-79
2022/08/12 11:28:23;;;;;;;10.25;2.80;;;;;;;32.38;28.95;101453.19;5082645;28;20036;-78
2022/08/12 11:30:49;;;;;;;9.52;2.50;;;;;;;32.53;29.66;101452.63;5064632;28;20115;-79
2022/08/12 11:33:14;;;;;;;8.63;2.28;;;;;;;32.61;28.85;101451.38;5054466;28;20067;-80
2022/08/12 11:35:42;;;;;;;6.47;2.60;;;;;;;32.68;28.55;101454.06;5053232;28;20028;-78
2022/08/12 11:38:09;;;;;;;6.03;2.60;;;;;;;32.39;28.83;101448.41;5070187;28;20044;-79
2022/08/12 11:40:35;;;;;;;10.27;2.85;;;;;;;32.05;29.99;101440.59;5070729;28;20077;-78
2022/08/12 11:43:01;;;;;;;17.10;2.90;;;;;;;32.89;28.59;101444.81;5053360;28;20080;-79
2022/08/12 11:45:27;;;;;;;7.05;2.60;;;;;;;32.34;28.92;101439.81;5083452;28;20055;-78
2022/08/12 11:48:00;;;;;;;14.88;3.38;;;;;;;32.16;29.80;101436.03;5083893;28;20035;-80
2022/08/12 11:50:26;;;;;;;6.85;2.75;;;;;;;32.23;29.23;101430.22;5066126;28;20031;-79
2022/08/12 11:52:52;;;;;;;7.63;2.67;;;;;;;32.69;29.64;101424.59;5066496;28;20547;-79
2022/08/12 11:55:17;;;;;;;6.20;2.70;;;;;;;32.64;30.64;101428.22;5065645;28;20120;-78
2022/08/12 11:57:48;;;;;;;11.77;2.97;;;;;;;32.56;29.34;101412.44;5063905;28;20035;-79
2022/08/12 12:00:14;;;;;;;7.78;3.05;;;;;;;32.45;29.87;101415.34;5049084;28;20028;-79
2022/08/12 12:02:39;;;;;;;11.25;2.97;;;;;;;32.23;28.71;101410.38;5066059;28;20093;-78
2022/08/12 12:05:05;;;;;;;10.85;2.83;;;;;;;32.31;29.50;101415.66;5082499;28;20067;-79
2022/08/12 12:07:31;;;;;;;8.30;2.70;;;;;;;32.09;29.55;101411.78;5062568;28;20033;-80
2022/08/12 12:09:57;;;;;;;10.93;3.35;;;;;;;32.28;30.03;101407.66;5048822;28;20495;-80
2022/08/12 12:12:22;;;;;;;7.93;3.17;;;;;;;32.22;29.84;101402.97;5065243;28;20087;-80
2022/08/12 12:14:49;;;;;;;12.38;3.10;;;;;;;32.30;30.54;101402.56;5033696;28;20040;-79
2022/08/12 12:17:14;;;;;;;6.30;2.60;;;;;;;32.24;30.57;101407.31;5083225;28;20040;-78
2022/08/12 12:19:40;;;;;;;5.15;2.90;;;;;;;31.99;29.76;101407.63;5100653;28;20046;-79
2022/08/12 12:22:05;;;;;;;8.35;3.38;;;;;;;32.12;29.30;101394.28;5099796;28;20061;-80
2022/08/12 12:24:31;;;;;;;5.97;2.90;;;;;;;31.96;29.79;101390.25;5073386;28;20036;-77
2022/08/12 12:26:57;;;;;;;16.63;3.15;;;;;;;32.30;30.13;101393.22;5088694;28;20036;-81
2022/08/12 12:29:22;;;;;;;14.85;3.10;;;;;;;32.33;29.03;101399.25;5080865;28;20077;-79
2022/08/12 12:31:48;;;;;;;18.02;3.17;;;;;;;32.26;29.60;101389.19;5063970;28;20036;-80
2022/08/12 12:34:13;;;;;;;8.95;2.83;;;;;;;32.46;29.75;101383.03;5098383;28;20051;-78
2022/08/12 12:36:39;;;;;;;7.63;2.50;;;;;;;32.46;28.29;101383.03;5063433;28;20036;-79
2022/08/12 12:39:04;;;;;;;11.38;2.33;;;;;;;32.36;28.51;101380.88;5063064;28;20038;-79
2022/08/12 12:41:30;;;;;;;9.40;2.33;;;;;;;32.56;28.54;101369.03;5081216;28;20506;-79
2022/08/12 12:43:56;;;;;;;2.60;2.25;;;;;;;32.52;27.76;101368.69;5079406;28;20048;-79
2022/08/12 12:46:21;;;;;;;3.30;2.20;;;;;;;32.61;27.75;101366.28;5043702;28;20044;-78
2022/08/12 12:48:47;;;;;;;3.45;2.30;;;;;;;32.45;27.07;101376.50;5060814;28;20062;-79
2022/08/12 12:51:15;;;;;;;9.27;2.00;;;;;;;32.33;27.01;101370.91;5057023;28;20028;-79
2022/08/12 12:53:48;;;;;;;10.88;5.53;;;;;;;32.37;26.33;101359.91;5061256;28;20045;-79
2022/08/12 12:56:21;;;;;;;5.55;2.22;;;;;;;32.46;27.19;101355.53;5047777;28;20033;-79
2022/08/12 12:58:48;;;;;;;10.10;3.00;;;;;;;32.33;27.04;101356.72;5099744;28;20028;-79
2022/08/12 13:01:16;;;;;;;10.32;2.20;;;;;;;32.33;26.38;101359.56;5099782;28;20028;-79
2022/08/12 13:03:42;;;;;;;7.47;2.00;;;;;;;32.37;27.96;101354.22;5079656;28;20027;-79
2022/08/12 13:06:07;;;;;;;3.92;2.03;;;;;;;32.46;27.99;101352.69;5079649;28;20123;-79
2022/08/12 13:08:33;;;;;;;5.32;2.28;;;;;;;32.58;27.15;101346.94;5061831;28;20031;-78
2022/08/12 13:11:04;;;;;;;3.03;2.00;;;;;;;32.81;27.70;101343.09;5047496;28;20119;-79
2022/08/12 13:13:32;;;;;;;4.80;2.00;;;;;;;32.49;25.91;101343.69;5046857;28;20050;-79
2022/08/12 13:16:00;;;;;;;6.78;1.90;;;;;;;32.24;25.54;101346.94;5063689;28;20027;-80
2022/08/12 13:18:30;;;;;;;10.35;2.50;;;;;;;32.08;26.18;101339.25;5062868;28;20030;-79